sensor_id;sensor_type;location;lat;lon;timestamp;P1;durP1;ratioP1;P2;durP2;ratioP2
60502;SDS011;51448;51.660;5.824;2023-09-07T00:02:13;9.88;;;7.38;;
60502;SDS011;51448;51.660;5.824;2023-09-07T00:04:41;10.73;;;7.88;;
60502;SDS011;51448;51.660;5.824;2023-09-07T00:07:10;9.05;;;7.30;;
60502;SDS011;51448;51.660;5.824;2023-09-07T00:09:38;9.00;;;6.80;;
60502;SDS011;51448;51.660;5.824;2023-09-07T00:12:06;10.38;;;6.68;;
60502;SDS011;51448;51.660;5.824;2023-09-07T00:14:33;10.07;;;7.22;;
60502;SDS011;51448;51.660;5.824;2023-09-07T00:17:01;9.30;;;6.72;;
60502;SDS011;51448;51.660;5.824;2023-09-07T00:19:30;10.77;;;6.78;;
60502;SDS011;51448;51.660;5.824;2023-09-07T00:22:00;9.82;;;6.63;;
60502;SDS011;51448;51.660;5.824;2023-09-07T00:24:27;9.63;;;7.57;;
60502;SDS011;51448;51.660;5.824;2023-09-07T00:26:55;11.35;;;8.30;;
60502;SDS011;51448;51.660;5.824;2023-09-07T00:29:23;10.10;;;6.57;;
60502;SDS011;51448;51.660;5.824;2023-09-07T00:31:50;9.70;;;6.78;;
60502;SDS011;51448;51.660;5.824;2023-09-07T00:34:18;8.40;;;6.60;;
60502;SDS011;51448;51.660;5.824;2023-09-07T00:36:46;9.00;;;6.18;;
60502;SDS011;51448;51.660;5.824;2023-09-07T00:39:13;9.40;;;6.28;;
60502;SDS011;51448;51.660;5.824;2023-09-07T00:41:41;9.48;;;6.45;;
60502;SDS011;51448;51.660;5.824;2023-09-07T00:44:09;8.90;;;6.38;;
60502;SDS011;51448;51.660;5.824;2023-09-07T00:46:36;9.80;;;6.55;;
60502;SDS011;51448;51.660;5.824;2023-09-07T00:49:04;8.98;;;7.00;;
60502;SDS011;51448;51.660;5.824;2023-09-07T00:51:32;10.60;;;6.88;;
60502;SDS011;51448;51.660;5.824;2023-09-07T00:54:01;8.95;;;6.18;;
60502;SDS011;51448;51.660;5.824;2023-09-07T00:56:29;11.75;;;7.10;;
60502;SDS011;51448;51.660;5.824;2023-09-07T00:58:59;8.93;;;6.60;;
60502;SDS011;51448;51.660;5.824;2023-09-07T01:01:28;8.43;;;5.90;;
60502;SDS011;51448;51.660;5.824;2023-09-07T01:03:58;8.32;;;5.05;;
60502;SDS011;51448;51.660;5.824;2023-09-07T01:06:32;8.75;;;6.05;;
60502;SDS011;51448;51.660;5.824;2023-09-07T01:09:16;8.30;;;6.20;;
60502;SDS011;51448;51.660;5.824;2023-09-07T01:11:50;9.75;;;6.57;;
60502;SDS011;51448;51.660;5.824;2023-09-07T01:14:20;9.98;;;6.38;;
60502;SDS011;51448;51.660;5.824;2023-09-07T01:16:49;10.20;;;7.15;;
60502;SDS011;51448;51.660;5.824;2023-09-07T01:19:18;10.15;;;6.82;;
60502;SDS011;51448;51.660;5.824;2023-09-07T01:21:46;11.05;;;7.15;;
60502;SDS011;51448;51.660;5.824;2023-09-07T01:24:15;8.77;;;6.45;;
60502;SDS011;51448;51.660;5.824;2023-09-07T01:26:44;8.98;;;6.03;;
60502;SDS011;51448;51.660;5.824;2023-09-07T01:29:16;10.85;;;7.93;;
60502;SDS011;51448;51.660;5.824;2023-09-07T01:31:44;11.00;;;8.35;;
60502;SDS011;51448;51.660;5.824;2023-09-07T01:34:12;13.30;;;9.27;;
60502;SDS011;51448;51.660;5.824;2023-09-07T01:36:39;9.65;;;7.38;;
60502;SDS011;51448;51.660;5.824;2023-09-07T01:39:08;9.68;;;7.88;;
60502;SDS011;51448;51.660;5.824;2023-09-07T01:41:35;10.90;;;8.10;;
60502;SDS011;51448;51.660;5.824;2023-09-07T01:44:03;11.88;;;8.98;;
60502;SDS011;51448;51.660;5.824;2023-09-07T01:46:31;13.30;;;8.73;;
60502;SDS011;51448;51.660;5.824;2023-09-07T01:48:59;11.98;;;8.00;;
60502;SDS011;51448;51.660;5.824;2023-09-07T01:51:27;11.27;;;7.88;;
60502;SDS011;51448;51.660;5.824;2023-09-07T01:53:55;11.30;;;7.75;;
60502;SDS011;51448;51.660;5.824;2023-09-07T01:56:23;11.20;;;7.78;;
60502;SDS011;51448;51.660;5.824;2023-09-07T01:58:50;13.70;;;8.18;;
60502;SDS011;51448;51.660;5.824;2023-09-07T02:01:25;9.55;;;7.78;;
60502;SDS011;51448;51.660;5.824;2023-09-07T02:03:58;12.50;;;7.32;;
60502;SDS011;51448;51.660;5.824;2023-09-07T02:06:25;13.20;;;8.10;;
60502;SDS011;51448;51.660;5.824;2023-09-07T02:08:54;11.25;;;7.88;;
60502;SDS011;51448;51.660;5.824;2023-09-07T02:11:23;10.80;;;7.13;;
60502;SDS011;51448;51.660;5.824;2023-09-07T02:13:51;10.25;;;7.60;;
60502;SDS011;51448;51.660;5.824;2023-09-07T02:16:18;9.77;;;8.07;;
60502;SDS011;51448;51.660;5.824;2023-09-07T02:18:48;10.20;;;7.45;;
60502;SDS011;51448;51.660;5.824;2023-09-07T02:21:18;11.45;;;7.95;;
60502;SDS011;51448;51.660;5.824;2023-09-07T02:23:46;10.13;;;7.03;;
60502;SDS011;51448;51.660;5.824;2023-09-07T02:26:13;9.65;;;6.50;;
60502;SDS011;51448;51.660;5.824;2023-09-07T02:28:41;9.90;;;6.68;;
60502;SDS011;51448;51.660;5.824;2023-09-07T02:31:10;9.90;;;7.40;;
60502;SDS011;51448;51.660;5.824;2023-09-07T02:33:38;9.20;;;6.45;;
60502;SDS011;51448;51.660;5.824;2023-09-07T02:36:12;11.18;;;6.82;;
60502;SDS011;51448;51.660;5.824;2023-09-07T02:38:39;12.70;;;7.38;;
60502;SDS011;51448;51.660;5.824;2023-09-07T02:41:07;13.20;;;6.88;;
60502;SDS011;51448;51.660;5.824;2023-09-07T02:43:35;10.18;;;6.22;;
60502;SDS011;51448;51.660;5.824;2023-09-07T02:46:02;8.82;;;6.82;;
60502;SDS011;51448;51.660;5.824;2023-09-07T02:48:30;11.15;;;7.50;;
60502;SDS011;51448;51.660;5.824;2023-09-07T02:50:58;12.80;;;9.48;;
60502;SDS011;51448;51.660;5.824;2023-09-07T02:53:27;15.68;;;9.57;;
60502;SDS011;51448;51.660;5.824;2023-09-07T02:55:56;13.48;;;9.63;;
60502;SDS011;51448;51.660;5.824;2023-09-07T02:58:25;10.77;;;7.50;;
60502;SDS011;51448;51.660;5.824;2023-09-07T03:00:53;10.85;;;7.32;;
60502;SDS011;51448;51.660;5.824;2023-09-07T03:03:24;10.00;;;7.05;;
60502;SDS011;51448;51.660;5.824;2023-09-07T03:05:54;10.98;;;7.63;;
60502;SDS011;51448;51.660;5.824;2023-09-07T03:08:22;12.52;;;8.77;;
60502;SDS011;51448;51.660;5.824;2023-09-07T03:10:52;14.68;;;10.10;;
60502;SDS011;51448;51.660;5.824;2023-09-07T03:13:19;11.98;;;9.05;;
60502;SDS011;51448;51.660;5.824;2023-09-07T03:15:48;12.65;;;9.18;;
60502;SDS011;51448;51.660;5.824;2023-09-07T03:18:15;15.02;;;9.98;;
60502;SDS011;51448;51.660;5.824;2023-09-07T03:20:43;13.77;;;9.73;;
60502;SDS011;51448;51.660;5.824;2023-09-07T03:23:11;13.70;;;9.82;;
60502;SDS011;51448;51.660;5.824;2023-09-07T03:25:38;12.80;;;8.32;;
60502;SDS011;51448;51.660;5.824;2023-09-07T03:28:06;11.85;;;8.00;;
60502;SDS011;51448;51.660;5.824;2023-09-07T03:30:36;11.10;;;8.98;;
60502;SDS011;51448;51.660;5.824;2023-09-07T03:33:05;12.43;;;9.43;;
60502;SDS011;51448;51.660;5.824;2023-09-07T03:35:33;11.57;;;8.85;;
60502;SDS011;51448;51.660;5.824;2023-09-07T03:38:00;12.88;;;9.55;;
60502;SDS011;51448;51.660;5.824;2023-09-07T03:40:28;12.40;;;9.80;;
60502;SDS011;51448;51.660;5.824;2023-09-07T03:42:56;14.68;;;9.95;;
60502;SDS011;51448;51.660;5.824;2023-09-07T03:45:26;14.57;;;8.93;;
60502;SDS011;51448;51.660;5.824;2023-09-07T03:47:53;11.63;;;9.30;;
60502;SDS011;51448;51.660;5.824;2023-09-07T03:50:21;12.05;;;8.88;;
60502;SDS011;51448;51.660;5.824;2023-09-07T03:52:49;19.15;;;10.48;;
60502;SDS011;51448;51.660;5.824;2023-09-07T03:55:17;13.63;;;9.43;;
60502;SDS011;51448;51.660;5.824;2023-09-07T03:57:50;12.80;;;9.53;;
60502;SDS011;51448;51.660;5.824;2023-09-07T04:00:22;14.35;;;9.80;;
60502;SDS011;51448;51.660;5.824;2023-09-07T04:02:51;13.40;;;9.07;;
60502;SDS011;51448;51.660;5.824;2023-09-07T04:05:18;12.10;;;8.88;;
60502;SDS011;51448;51.660;5.824;2023-09-07T04:07:50;14.05;;;9.30;;
60502;SDS011;51448;51.660;5.824;2023-09-07T04:10:18;12.05;;;8.13;;
60502;SDS011;51448;51.660;5.824;2023-09-07T04:12:45;16.42;;;8.93;;
60502;SDS011;51448;51.660;5.824;2023-09-07T04:15:13;13.43;;;8.65;;
60502;SDS011;51448;51.660;5.824;2023-09-07T04:17:41;13.00;;;8.75;;
60502;SDS011;51448;51.660;5.824;2023-09-07T04:20:09;16.23;;;9.13;;
60502;SDS011;51448;51.660;5.824;2023-09-07T04:22:40;15.60;;;8.73;;
60502;SDS011;51448;51.660;5.824;2023-09-07T04:25:08;13.05;;;8.30;;
60502;SDS011;51448;51.660;5.824;2023-09-07T04:27:36;13.65;;;8.38;;
60502;SDS011;51448;51.660;5.824;2023-09-07T04:30:06;14.63;;;8.95;;
60502;SDS011;51448;51.660;5.824;2023-09-07T04:32:35;16.45;;;9.45;;
60502;SDS011;51448;51.660;5.824;2023-09-07T04:35:03;13.70;;;9.85;;
60502;SDS011;51448;51.660;5.824;2023-09-07T04:37:31;13.77;;;8.32;;
60502;SDS011;51448;51.660;5.824;2023-09-07T04:39:58;15.02;;;8.25;;
60502;SDS011;51448;51.660;5.824;2023-09-07T04:42:27;14.50;;;8.75;;
60502;SDS011;51448;51.660;5.824;2023-09-07T04:44:55;13.95;;;8.55;;
60502;SDS011;51448;51.660;5.824;2023-09-07T04:47:22;15.73;;;8.80;;
60502;SDS011;51448;51.660;5.824;2023-09-07T04:49:50;16.95;;;8.95;;
60502;SDS011;51448;51.660;5.824;2023-09-07T04:52:20;16.55;;;8.52;;
60502;SDS011;51448;51.660;5.824;2023-09-07T04:54:48;14.40;;;8.70;;
60502;SDS011;51448;51.660;5.824;2023-09-07T04:57:17;15.05;;;8.65;;
60502;SDS011;51448;51.660;5.824;2023-09-07T04:59:46;13.98;;;9.07;;
60502;SDS011;51448;51.660;5.824;2023-09-07T05:02:15;14.32;;;9.10;;
60502;SDS011;51448;51.660;5.824;2023-09-07T05:04:44;16.38;;;9.13;;
60502;SDS011;51448;51.660;5.824;2023-09-07T05:07:12;19.35;;;8.57;;
60502;SDS011;51448;51.660;5.824;2023-09-07T05:09:39;14.50;;;8.10;;
60502;SDS011;51448;51.660;5.824;2023-09-07T05:12:07;16.45;;;7.95;;
60502;SDS011;51448;51.660;5.824;2023-09-07T05:14:36;14.30;;;8.52;;
60502;SDS011;51448;51.660;5.824;2023-09-07T05:17:04;15.38;;;8.73;;
60502;SDS011;51448;51.660;5.824;2023-09-07T05:19:32;13.18;;;7.63;;
60502;SDS011;51448;51.660;5.824;2023-09-07T05:21:59;16.08;;;7.95;;
60502;SDS011;51448;51.660;5.824;2023-09-07T05:24:29;11.13;;;7.75;;
60502;SDS011;51448;51.660;5.824;2023-09-07T05:26:57;17.65;;;8.75;;
60502;SDS011;51448;51.660;5.824;2023-09-07T05:29:25;14.38;;;7.68;;
60502;SDS011;51448;51.660;5.824;2023-09-07T05:31:52;14.38;;;8.57;;
60502;SDS011;51448;51.660;5.824;2023-09-07T05:34:20;13.80;;;8.07;;
60502;SDS011;51448;51.660;5.824;2023-09-07T05:36:49;11.68;;;6.85;;
60502;SDS011;51448;51.660;5.824;2023-09-07T05:39:17;14.70;;;8.98;;
60502;SDS011;51448;51.660;5.824;2023-09-07T05:41:46;15.00;;;9.38;;
60502;SDS011;51448;51.660;5.824;2023-09-07T05:44:17;11.97;;;8.73;;
60502;SDS011;51448;51.660;5.824;2023-09-07T05:46:44;14.35;;;7.95;;
60502;SDS011;51448;51.660;5.824;2023-09-07T05:49:12;17.45;;;8.23;;
60502;SDS011;51448;51.660;5.824;2023-09-07T05:51:40;18.63;;;9.90;;
60502;SDS011;51448;51.660;5.824;2023-09-07T05:54:07;16.05;;;8.88;;
60502;SDS011;51448;51.660;5.824;2023-09-07T05:56:35;17.13;;;9.65;;
60502;SDS011;51448;51.660;5.824;2023-09-07T05:59:03;15.73;;;8.60;;
60502;SDS011;51448;51.660;5.824;2023-09-07T06:01:31;13.95;;;8.52;;
60502;SDS011;51448;51.660;5.824;2023-09-07T06:03:59;18.42;;;9.55;;
60502;SDS011;51448;51.660;5.824;2023-09-07T06:06:28;17.38;;;10.00;;
60502;SDS011;51448;51.660;5.824;2023-09-07T06:08:56;19.13;;;9.82;;
60502;SDS011;51448;51.660;5.824;2023-09-07T06:11:26;16.50;;;9.45;;
60502;SDS011;51448;51.660;5.824;2023-09-07T06:13:54;15.15;;;9.15;;
60502;SDS011;51448;51.660;5.824;2023-09-07T06:16:21;15.43;;;9.38;;
60502;SDS011;51448;51.660;5.824;2023-09-07T06:18:49;15.40;;;9.05;;
60502;SDS011;51448;51.660;5.824;2023-09-07T06:21:17;14.02;;;9.18;;
60502;SDS011;51448;51.660;5.824;2023-09-07T06:23:44;16.73;;;9.50;;
60502;SDS011;51448;51.660;5.824;2023-09-07T06:26:12;13.20;;;8.60;;
60502;SDS011;51448;51.660;5.824;2023-09-07T06:28:40;15.02;;;8.95;;
60502;SDS011;51448;51.660;5.824;2023-09-07T06:31:07;16.08;;;9.73;;
60502;SDS011;51448;51.660;5.824;2023-09-07T06:33:35;19.55;;;9.00;;
60502;SDS011;51448;51.660;5.824;2023-09-07T06:36:03;12.85;;;8.70;;
60502;SDS011;51448;51.660;5.824;2023-09-07T06:38:31;11.85;;;9.18;;
60502;SDS011;51448;51.660;5.824;2023-09-07T06:41:09;14.88;;;9.38;;
60502;SDS011;51448;51.660;5.824;2023-09-07T06:44:33;11.82;;;8.95;;
60502;SDS011;51448;51.660;5.824;2023-09-07T06:47:02;13.10;;;9.40;;
60502;SDS011;51448;51.660;5.824;2023-09-07T06:49:30;13.45;;;8.40;;
60502;SDS011;51448;51.660;5.824;2023-09-07T06:51:58;15.25;;;8.80;;
60502;SDS011;51448;51.660;5.824;2023-09-07T06:54:28;12.32;;;9.10;;
60502;SDS011;51448;51.660;5.824;2023-09-07T06:56:57;13.00;;;8.47;;
60502;SDS011;51448;51.660;5.824;2023-09-07T06:59:25;13.25;;;8.55;;
60502;SDS011;51448;51.660;5.824;2023-09-07T07:01:52;13.75;;;8.93;;
60502;SDS011;51448;51.660;5.824;2023-09-07T07:04:21;12.05;;;8.75;;
60502;SDS011;51448;51.660;5.824;2023-09-07T07:06:49;13.80;;;8.85;;
60502;SDS011;51448;51.660;5.824;2023-09-07T07:09:16;11.18;;;7.68;;
60502;SDS011;51448;51.660;5.824;2023-09-07T07:11:46;12.07;;;8.20;;
60502;SDS011;51448;51.660;5.824;2023-09-07T07:14:13;11.23;;;7.10;;
60502;SDS011;51448;51.660;5.824;2023-09-07T07:16:41;12.23;;;8.18;;
60502;SDS011;51448;51.660;5.824;2023-09-07T07:19:09;13.05;;;7.43;;
60502;SDS011;51448;51.660;5.824;2023-09-07T07:21:37;13.82;;;8.02;;
60502;SDS011;51448;51.660;5.824;2023-09-07T07:24:08;11.60;;;7.47;;
60502;SDS011;51448;51.660;5.824;2023-09-07T07:26:37;12.45;;;7.32;;
60502;SDS011;51448;51.660;5.824;2023-09-07T07:29:04;13.98;;;7.32;;
60502;SDS011;51448;51.660;5.824;2023-09-07T07:31:33;10.68;;;7.40;;
60502;SDS011;51448;51.660;5.824;2023-09-07T07:34:00;9.95;;;6.97;;
60502;SDS011;51448;51.660;5.824;2023-09-07T07:36:29;11.80;;;7.55;;
60502;SDS011;51448;51.660;5.824;2023-09-07T07:39:01;13.05;;;7.18;;
60502;SDS011;51448;51.660;5.824;2023-09-07T07:41:31;11.65;;;7.35;;
60502;SDS011;51448;51.660;5.824;2023-09-07T07:43:58;9.75;;;6.88;;
60502;SDS011;51448;51.660;5.824;2023-09-07T07:46:26;12.65;;;7.72;;
60502;SDS011;51448;51.660;5.824;2023-09-07T07:48:54;9.07;;;7.30;;
60502;SDS011;51448;51.660;5.824;2023-09-07T07:51:22;10.80;;;7.75;;
60502;SDS011;51448;51.660;5.824;2023-09-07T07:53:51;12.07;;;7.28;;
60502;SDS011;51448;51.660;5.824;2023-09-07T07:56:19;10.85;;;6.90;;
60502;SDS011;51448;51.660;5.824;2023-09-07T07:58:50;12.50;;;7.78;;
60502;SDS011;51448;51.660;5.824;2023-09-07T08:01:19;11.05;;;7.15;;
60502;SDS011;51448;51.660;5.824;2023-09-07T08:03:50;14.07;;;7.00;;
60502;SDS011;51448;51.660;5.824;2023-09-07T08:06:20;11.57;;;7.75;;
60502;SDS011;51448;51.660;5.824;2023-09-07T08:08:48;11.55;;;7.20;;
60502;SDS011;51448;51.660;5.824;2023-09-07T08:11:15;11.45;;;6.82;;
60502;SDS011;51448;51.660;5.824;2023-09-07T08:13:44;14.68;;;6.32;;
60502;SDS011;51448;51.660;5.824;2023-09-07T08:16:14;11.93;;;6.80;;
60502;SDS011;51448;51.660;5.824;2023-09-07T08:18:42;13.13;;;7.15;;
60502;SDS011;51448;51.660;5.824;2023-09-07T08:21:13;10.90;;;6.82;;
60502;SDS011;51448;51.660;5.824;2023-09-07T08:23:42;12.30;;;6.63;;
60502;SDS011;51448;51.660;5.824;2023-09-07T08:26:10;10.18;;;5.05;;
60502;SDS011;51448;51.660;5.824;2023-09-07T08:28:39;10.93;;;5.68;;
60502;SDS011;51448;51.660;5.824;2023-09-07T08:31:07;9.65;;;5.22;;
60502;SDS011;51448;51.660;5.824;2023-09-07T08:33:35;10.60;;;4.97;;
60502;SDS011;51448;51.660;5.824;2023-09-07T08:36:07;9.43;;;4.70;;
60502;SDS011;51448;51.660;5.824;2023-09-07T08:38:35;9.77;;;5.28;;
60502;SDS011;51448;51.660;5.824;2023-09-07T08:41:03;8.77;;;5.13;;
60502;SDS011;51448;51.660;5.824;2023-09-07T08:43:33;9.93;;;5.00;;
60502;SDS011;51448;51.660;5.824;2023-09-07T08:46:15;7.65;;;4.20;;
60502;SDS011;51448;51.660;5.824;2023-09-07T08:48:48;10.27;;;4.90;;
60502;SDS011;51448;51.660;5.824;2023-09-07T08:51:18;8.90;;;4.57;;
60502;SDS011;51448;51.660;5.824;2023-09-07T08:53:47;6.95;;;4.05;;
60502;SDS011;51448;51.660;5.824;2023-09-07T08:56:16;9.82;;;4.13;;
60502;SDS011;51448;51.660;5.824;2023-09-07T08:58:45;7.43;;;4.47;;
60502;SDS011;51448;51.660;5.824;2023-09-07T09:01:12;8.70;;;4.78;;
60502;SDS011;51448;51.660;5.824;2023-09-07T09:03:43;9.82;;;5.00;;
60502;SDS011;51448;51.660;5.824;2023-09-07T09:06:12;7.78;;;4.22;;
60502;SDS011;51448;51.660;5.824;2023-09-07T09:11:17;11.82;;;4.15;;
60502;SDS011;51448;51.660;5.824;2023-09-07T09:13:45;9.63;;;4.47;;
60502;SDS011;51448;51.660;5.824;2023-09-07T09:16:14;9.90;;;4.38;;
60502;SDS011;51448;51.660;5.824;2023-09-07T09:19:04;9.02;;;5.20;;
60502;SDS011;51448;51.660;5.824;2023-09-07T09:21:30;7.22;;;4.05;;
60502;SDS011;51448;51.660;5.824;2023-09-07T09:23:58;9.27;;;4.20;;
60502;SDS011;51448;51.660;5.824;2023-09-07T09:26:27;7.28;;;3.72;;
60502;SDS011;51448;51.660;5.824;2023-09-07T09:28:57;6.75;;;4.13;;
60502;SDS011;51448;51.660;5.824;2023-09-07T09:31:24;8.65;;;4.18;;
60502;SDS011;51448;51.660;5.824;2023-09-07T09:33:52;9.15;;;3.95;;
60502;SDS011;51448;51.660;5.824;2023-09-07T09:36:20;6.47;;;4.38;;
60502;SDS011;51448;51.660;5.824;2023-09-07T09:38:50;7.93;;;4.05;;
60502;SDS011;51448;51.660;5.824;2023-09-07T09:41:20;8.88;;;3.72;;
60502;SDS011;51448;51.660;5.824;2023-09-07T09:43:49;5.90;;;3.17;;
60502;SDS011;51448;51.660;5.824;2023-09-07T09:46:18;8.27;;;4.30;;
60502;SDS011;51448;51.660;5.824;2023-09-07T09:48:47;7.22;;;4.20;;
60502;SDS011;51448;51.660;5.824;2023-09-07T09:51:15;8.38;;;4.05;;
60502;SDS011;51448;51.660;5.824;2023-09-07T09:53:45;7.78;;;3.92;;
60502;SDS011;51448;51.660;5.824;2023-09-07T09:56:15;6.45;;;3.70;;
60502;SDS011;51448;51.660;5.824;2023-09-07T09:58:44;10.57;;;4.10;;
60502;SDS011;51448;51.660;5.824;2023-09-07T10:01:11;6.07;;;3.55;;
60502;SDS011;51448;51.660;5.824;2023-09-07T10:03:42;5.93;;;3.47;;
60502;SDS011;51448;51.660;5.824;2023-09-07T10:06:18;8.80;;;3.65;;
60502;SDS011;51448;51.660;5.824;2023-09-07T10:08:58;7.00;;;3.70;;
60502;SDS011;51448;51.660;5.824;2023-09-07T10:11:34;9.05;;;3.10;;
60502;SDS011;51448;51.660;5.824;2023-09-07T10:14:05;9.63;;;3.42;;
60502;SDS011;51448;51.660;5.824;2023-09-07T10:16:42;5.97;;;3.00;;
60502;SDS011;51448;51.660;5.824;2023-09-07T10:19:15;5.60;;;3.60;;
60502;SDS011;51448;51.660;5.824;2023-09-07T10:21:50;8.75;;;4.30;;
60502;SDS011;51448;51.660;5.824;2023-09-07T10:26:58;7.47;;;3.75;;
60502;SDS011;51448;51.660;5.824;2023-09-07T10:29:28;8.27;;;3.70;;
60502;SDS011;51448;51.660;5.824;2023-09-07T10:31:56;7.03;;;4.03;;
60502;SDS011;51448;51.660;5.824;2023-09-07T10:34:34;6.82;;;4.00;;
60502;SDS011;51448;51.660;5.824;2023-09-07T10:37:05;6.60;;;3.70;;
60502;SDS011;51448;51.660;5.824;2023-09-07T10:39:41;25.45;;;8.43;;
60502;SDS011;51448;51.660;5.824;2023-09-07T10:42:23;6.88;;;3.88;;
60502;SDS011;51448;51.660;5.824;2023-09-07T10:44:52;10.35;;;4.15;;
60502;SDS011;51448;51.660;5.824;2023-09-07T10:47:21;7.18;;;3.53;;
60502;SDS011;51448;51.660;5.824;2023-09-07T10:49:49;8.10;;;3.50;;
60502;SDS011;51448;51.660;5.824;2023-09-07T10:52:17;5.95;;;3.60;;
60502;SDS011;51448;51.660;5.824;2023-09-07T10:54:44;5.90;;;3.55;;
60502;SDS011;51448;51.660;5.824;2023-09-07T10:57:25;7.13;;;3.67;;
60502;SDS011;51448;51.660;5.824;2023-09-07T10:59:52;7.47;;;3.38;;
60502;SDS011;51448;51.660;5.824;2023-09-07T11:02:22;6.30;;;3.70;;
60502;SDS011;51448;51.660;5.824;2023-09-07T11:04:50;5.55;;;3.22;;
60502;SDS011;51448;51.660;5.824;2023-09-07T11:07:18;7.90;;;3.80;;
60502;SDS011;51448;51.660;5.824;2023-09-07T11:09:45;5.88;;;3.63;;
60502;SDS011;51448;51.660;5.824;2023-09-07T11:12:13;6.40;;;3.20;;
60502;SDS011;51448;51.660;5.824;2023-09-07T11:17:15;5.65;;;3.40;;
60502;SDS011;51448;51.660;5.824;2023-09-07T11:19:43;7.00;;;3.65;;
60502;SDS011;51448;51.660;5.824;2023-09-07T11:22:11;6.68;;;4.05;;
60502;SDS011;51448;51.660;5.824;2023-09-07T11:24:40;5.03;;;3.30;;
60502;SDS011;51448;51.660;5.824;2023-09-07T11:27:08;6.50;;;3.30;;
60502;SDS011;51448;51.660;5.824;2023-09-07T11:29:38;6.83;;;4.17;;
60502;SDS011;51448;51.660;5.824;2023-09-07T11:32:07;7.45;;;3.92;;
60502;SDS011;51448;51.660;5.824;2023-09-07T11:34:48;5.88;;;3.72;;
60502;SDS011;51448;51.660;5.824;2023-09-07T11:37:25;7.57;;;3.60;;
60502;SDS011;51448;51.660;5.824;2023-09-07T11:39:54;7.32;;;3.22;;
60502;SDS011;51448;51.660;5.824;2023-09-07T11:44:59;9.20;;;3.35;;
60502;SDS011;51448;51.660;5.824;2023-09-07T11:47:26;6.95;;;3.45;;
60502;SDS011;51448;51.660;5.824;2023-09-07T11:49:54;5.50;;;3.47;;
60502;SDS011;51448;51.660;5.824;2023-09-07T11:52:25;6.57;;;3.70;;
60502;SDS011;51448;51.660;5.824;2023-09-07T11:54:58;9.13;;;3.40;;
60502;SDS011;51448;51.660;5.824;2023-09-07T11:57:28;8.00;;;3.17;;
60502;SDS011;51448;51.660;5.824;2023-09-07T11:59:59;5.88;;;3.00;;
60502;SDS011;51448;51.660;5.824;2023-09-07T12:02:38;6.22;;;2.70;;
60502;SDS011;51448;51.660;5.824;2023-09-07T12:05:07;5.07;;;3.00;;
60502;SDS011;51448;51.660;5.824;2023-09-07T12:07:36;6.82;;;3.30;;
60502;SDS011;51448;51.660;5.824;2023-09-07T12:10:06;4.93;;;3.10;;
60502;SDS011;51448;51.660;5.824;2023-09-07T12:12:38;7.25;;;3.92;;
60502;SDS011;51448;51.660;5.824;2023-09-07T12:15:10;5.63;;;3.10;;
60502;SDS011;51448;51.660;5.824;2023-09-07T12:17:38;7.35;;;3.65;;
60502;SDS011;51448;51.660;5.824;2023-09-07T12:20:08;7.32;;;3.20;;
60502;SDS011;51448;51.660;5.824;2023-09-07T12:22:38;7.55;;;3.03;;
60502;SDS011;51448;51.660;5.824;2023-09-07T12:25:11;8.15;;;3.20;;
60502;SDS011;51448;51.660;5.824;2023-09-07T12:27:44;5.53;;;2.70;;
60502;SDS011;51448;51.660;5.824;2023-09-07T12:30:22;7.80;;;3.28;;
60502;SDS011;51448;51.660;5.824;2023-09-07T12:32:51;5.95;;;2.75;;
60502;SDS011;51448;51.660;5.824;2023-09-07T12:35:21;5.78;;;2.90;;
60502;SDS011;51448;51.660;5.824;2023-09-07T12:37:48;6.13;;;2.80;;
60502;SDS011;51448;51.660;5.824;2023-09-07T12:40:17;4.88;;;3.00;;
60502;SDS011;51448;51.660;5.824;2023-09-07T12:42:45;6.70;;;2.90;;
60502;SDS011;51448;51.660;5.824;2023-09-07T12:45:13;7.63;;;3.05;;
60502;SDS011;51448;51.660;5.824;2023-09-07T12:47:42;8.05;;;2.95;;
60502;SDS011;51448;51.660;5.824;2023-09-07T12:50:11;6.85;;;3.15;;
60502;SDS011;51448;51.660;5.824;2023-09-07T12:52:40;7.70;;;3.03;;
60502;SDS011;51448;51.660;5.824;2023-09-07T12:55:07;6.47;;;3.03;;
60502;SDS011;51448;51.660;5.824;2023-09-07T12:57:36;5.65;;;2.60;;
60502;SDS011;51448;51.660;5.824;2023-09-07T13:00:04;4.45;;;2.65;;
60502;SDS011;51448;51.660;5.824;2023-09-07T13:02:33;4.50;;;2.53;;
60502;SDS011;51448;51.660;5.824;2023-09-07T13:05:01;7.07;;;2.92;;
60502;SDS011;51448;51.660;5.824;2023-09-07T13:07:32;4.60;;;2.63;;
60502;SDS011;51448;51.660;5.824;2023-09-07T13:10:02;6.30;;;3.40;;
60502;SDS011;51448;51.660;5.824;2023-09-07T13:12:31;4.97;;;2.70;;
60502;SDS011;51448;51.660;5.824;2023-09-07T13:15:00;5.55;;;2.63;;
60502;SDS011;51448;51.660;5.824;2023-09-07T13:17:27;8.90;;;2.90;;
60502;SDS011;51448;51.660;5.824;2023-09-07T13:19:56;6.28;;;2.70;;
60502;SDS011;51448;51.660;5.824;2023-09-07T13:22:24;6.40;;;3.20;;
60502;SDS011;51448;51.660;5.824;2023-09-07T13:24:52;6.70;;;2.65;;
60502;SDS011;51448;51.660;5.824;2023-09-07T13:27:20;4.90;;;2.90;;
60502;SDS011;51448;51.660;5.824;2023-09-07T13:29:47;8.18;;;2.72;;
60502;SDS011;51448;51.660;5.824;2023-09-07T13:32:15;6.15;;;2.90;;
60502;SDS011;51448;51.660;5.824;2023-09-07T13:34:43;6.18;;;2.88;;
60502;SDS011;51448;51.660;5.824;2023-09-07T13:37:10;6.40;;;2.75;;
60502;SDS011;51448;51.660;5.824;2023-09-07T13:39:38;6.13;;;2.97;;
60502;SDS011;51448;51.660;5.824;2023-09-07T13:42:05;7.28;;;2.92;;
60502;SDS011;51448;51.660;5.824;2023-09-07T13:44:33;5.10;;;3.08;;
60502;SDS011;51448;51.660;5.824;2023-09-07T13:47:00;6.15;;;2.85;;
60502;SDS011;51448;51.660;5.824;2023-09-07T13:49:28;7.18;;;2.90;;
60502;SDS011;51448;51.660;5.824;2023-09-07T13:51:57;5.72;;;3.08;;
60502;SDS011;51448;51.660;5.824;2023-09-07T13:54:25;6.25;;;3.30;;
60502;SDS011;51448;51.660;5.824;2023-09-07T13:56:54;7.78;;;3.13;;
60502;SDS011;51448;51.660;5.824;2023-09-07T13:59:21;4.63;;;2.67;;
60502;SDS011;51448;51.660;5.824;2023-09-07T14:01:49;5.13;;;2.90;;
60502;SDS011;51448;51.660;5.824;2023-09-07T14:04:19;7.63;;;2.92;;
60502;SDS011;51448;51.660;5.824;2023-09-07T14:06:46;6.07;;;2.65;;
60502;SDS011;51448;51.660;5.824;2023-09-07T14:09:14;7.05;;;3.00;;
60502;SDS011;51448;51.660;5.824;2023-09-07T14:11:41;7.57;;;2.92;;
60502;SDS011;51448;51.660;5.824;2023-09-07T14:14:10;5.72;;;2.83;;
60502;SDS011;51448;51.660;5.824;2023-09-07T14:16:38;8.13;;;2.85;;
60502;SDS011;51448;51.660;5.824;2023-09-07T14:19:05;5.30;;;2.80;;
60502;SDS011;51448;51.660;5.824;2023-09-07T14:21:33;5.90;;;2.55;;
60502;SDS011;51448;51.660;5.824;2023-09-07T14:24:00;6.03;;;2.83;;
60502;SDS011;51448;51.660;5.824;2023-09-07T14:26:31;6.65;;;2.75;;
60502;SDS011;51448;51.660;5.824;2023-09-07T14:28:59;5.97;;;2.60;;
60502;SDS011;51448;51.660;5.824;2023-09-07T14:31:26;5.05;;;2.53;;
60502;SDS011;51448;51.660;5.824;2023-09-07T14:33:55;6.10;;;2.70;;
60502;SDS011;51448;51.660;5.824;2023-09-07T14:36:22;5.97;;;2.63;;
60502;SDS011;51448;51.660;5.824;2023-09-07T14:38:50;6.78;;;2.60;;
60502;SDS011;51448;51.660;5.824;2023-09-07T14:41:18;4.45;;;2.20;;
60502;SDS011;51448;51.660;5.824;2023-09-07T14:43:48;6.13;;;2.90;;
60502;SDS011;51448;51.660;5.824;2023-09-07T14:46:15;5.97;;;2.85;;
60502;SDS011;51448;51.660;5.824;2023-09-07T14:48:44;4.55;;;2.50;;
60502;SDS011;51448;51.660;5.824;2023-09-07T14:51:15;8.13;;;3.08;;
60502;SDS011;51448;51.660;5.824;2023-09-07T14:53:42;4.50;;;2.38;;
60502;SDS011;51448;51.660;5.824;2023-09-07T14:56:11;4.65;;;2.78;;
60502;SDS011;51448;51.660;5.824;2023-09-07T14:58:39;4.85;;;2.53;;
60502;SDS011;51448;51.660;5.824;2023-09-07T15:01:07;5.50;;;2.80;;
60502;SDS011;51448;51.660;5.824;2023-09-07T15:03:34;5.82;;;2.88;;